Time;durP1;ratioP1;P1;durP2;ratioP2;P2;SDS_P1;SDS_P2;PMS_P1;PMS_P2;Temp;Humidity;BMP_temperature;BMP_pressure;BME280_temperature;BME280_humidity;BME280_pressure;Samples;Min_cycle;Max_cycle;Signal;HPM_P1;HPM_P2
2021/04/19 00:02:17;;;;;;;39.65;18.95;;;;;;;2.72;96.20;99528.79;1815612;79;20956;-77
2021/04/19 00:04:46;;;;;;;34.15;17.30;;;;;;;2.69;96.25;99524.71;1815529;79;21113;-77
2021/04/19 00:07:14;;;;;;;27.35;15.05;;;;;;;2.67;96.22;99530.94;1815452;79;21130;-76
2021/04/19 00:09:41;;;;;;;26.82;14.23;;;;;;;2.62;96.08;99529.55;1815688;79;21550;-77
2021/04/19 00:12:11;;;;;;;30.65;15.18;;;;;;;2.56;95.89;99533.32;1815473;79;21074;-76
2021/04/19 00:14:40;;;;;;;27.00;15.10;;;;;;;2.51;96.03;99531.40;1815331;78;21020;-78
2021/04/19 00:17:09;;;;;;;30.45;15.25;;;;;;;2.47;96.11;99522.16;1815755;79;21170;-80
2021/04/19 00:19:39;;;;;;;25.08;14.47;;;;;;;2.41;96.10;99525.92;1815559;78;21083;-75
2021/04/19 00:22:08;;;;;;;28.00;14.18;;;;;;;2.39;96.14;99518.59;1815621;78;21059;-78
2021/04/19 00:24:35;;;;;;;30.40;14.00;;;;;;;2.32;95.93;99522.08;1815584;78;21359;-78
2021/04/19 00:27:06;;;;;;;24.60;14.18;;;;;;;2.26;95.96;99527.22;1815652;79;20980;-78
2021/04/19 00:29:34;;;;;;;27.00;15.05;;;;;;;2.24;96.24;99532.08;1815813;79;21103;-79
2021/04/19 00:32:03;;;;;;;29.75;15.48;;;;;;;2.26;96.66;99528.58;1815573;79;20941;-77
2021/04/19 00:34:31;;;;;;;31.87;15.60;;;;;;;2.28;96.97;99529.13;1788583;79;21118;-76
2021/04/19 00:36:59;;;;;;;34.18;17.75;;;;;;;2.31;97.29;99525.89;1818606;78;21355;-76
2021/04/19 00:39:26;;;;;;;42.55;19.95;;;;;;;2.33;97.50;99526.41;1818890;78;20921;-76
2021/04/19 00:41:54;;;;;;;46.92;19.15;;;;;;;2.36;97.60;99527.78;1818683;78;21096;-76
2021/04/19 00:44:21;;;;;;;38.38;18.60;;;;;;;2.37;97.68;99528.87;1818912;78;21158;-78
2021/04/19 00:46:49;;;;;;;36.90;19.20;;;;;;;2.37;97.61;99524.00;1793874;78;20984;-77
2021/04/19 00:49:19;;;;;;;38.25;18.65;;;;;;;2.34;97.52;99521.28;1818977;78;21132;-77
2021/04/19 00:51:46;;;;;;;39.95;18.05;;;;;;;2.30;97.40;99517.48;1818790;78;20930;-76
2021/04/19 00:54:13;;;;;;;33.98;17.30;;;;;;;2.26;97.35;99518.55;1793725;78;21150;-76
2021/04/19 00:56:42;;;;;;;32.13;17.50;;;;;;;2.23;97.30;99517.72;1818868;78;21073;-76
2021/04/19 00:59:10;;;;;;;44.48;20.52;;;;;;;2.20;97.31;99520.14;1768376;78;21171;-76
2021/04/19 01:01:38;;;;;;;40.40;20.20;;;;;;;2.19;97.43;99526.09;1818777;78;21191;-76
2021/04/19 01:04:07;;;;;;;45.35;20.05;;;;;;;2.16;97.43;99517.14;1818762;78;20953;-76
2021/04/19 01:06:34;;;;;;;38.42;19.77;;;;;;;2.13;97.44;99518.20;1818794;78;20935;-74
2021/04/19 01:09:05;;;;;;;50.43;21.60;;;;;;;2.12;97.54;99519.27;1818864;78;21143;-75
2021/04/19 01:11:35;;;;;;;61.95;25.82;;;;;;;2.11;97.63;99514.93;1819070;78;21072;-75
2021/04/19 01:14:02;;;;;;;59.20;24.12;;;;;;;2.09;97.70;99515.19;1818778;78;21733;-76
2021/04/19 01:16:31;;;;;;;77.92;29.25;;;;;;;2.09;97.73;99517.08;1818745;78;20997;-76
2021/04/19 01:19:00;;;;;;;88.00;32.45;;;;;;;2.07;97.77;99511.11;1818911;78;20990;-76
2021/04/19 01:21:28;;;;;;;72.15;29.92;;;;;;;2.06;97.87;99509.48;1818830;78;21124;-76
2021/04/19 01:23:55;;;;;;;51.53;22.65;;;;;;;2.05;97.96;99510.55;1818683;78;20970;-76
2021/04/19 01:26:26;;;;;;;44.03;20.17;;;;;;;2.03;97.91;99511.36;1819087;78;21723;-75
2021/04/19 01:28:56;;;;;;;31.35;16.65;;;;;;;1.99;97.95;99503.75;1818735;78;21126;-75
2021/04/19 01:31:23;;;;;;;26.90;14.98;;;;;;;1.99;98.04;99507.00;1818899;78;21092;-76
2021/04/19 01:33:53;;;;;;;35.38;16.67;;;;;;;1.98;98.17;99500.77;1818743;78;21132;-75
2021/04/19 01:36:23;;;;;;;31.50;15.78;;;;;;;1.97;98.23;99505.91;1818457;78;21158;-75
2021/04/19 01:38:53;;;;;;;25.50;15.55;;;;;;;1.96;98.27;99502.10;1791325;78;22276;-75
2021/04/19 01:41:21;;;;;;;26.02;15.70;;;;;;;1.95;98.25;99506.70;1818600;78;21559;-76
2021/04/19 01:43:48;;;;;;;29.72;16.15;;;;;;;1.93;98.32;99502.09;1818511;78;20942;-76
2021/04/19 01:46:17;;;;;;;27.13;16.48;;;;;;;1.92;98.38;99504.52;1818472;78;21080;-75
2021/04/19 01:48:44;;;;;;;37.00;18.27;;;;;;;1.93;98.45;99505.33;1818653;78;21152;-75
2021/04/19 01:51:12;;;;;;;31.75;16.73;;;;;;;1.92;98.52;99500.45;1819784;77;21338;-76
2021/04/19 01:53:41;;;;;;;29.70;16.60;;;;;;;1.93;98.59;99506.14;1779599;80;21171;-76
2021/04/19 01:56:09;;;;;;;31.82;16.42;;;;;;;1.90;98.48;99505.31;1762481;81;21181;-76
2021/04/19 01:58:39;;;;;;;34.20;17.62;;;;;;;1.87;98.37;99513.95;1748551;82;21155;-76
2021/04/19 02:01:08;;;;;;;41.80;19.52;;;;;;;1.82;98.13;99516.62;1773444;80;21485;-76
2021/04/19 02:04:07;;;;;;;44.40;17.80;;;;;;;1.79;98.18;99517.67;1750085;81;21379;-74
2021/04/19 02:06:43;;;;;;;28.12;15.05;;;;;;;1.78;98.26;99505.22;1773269;80;21093;-74
2021/04/19 02:09:37;;;;;;;30.37;15.03;;;;;;;1.73;98.10;99503.85;1774293;80;20986;-74
2021/04/19 02:12:20;;;;;;;31.73;15.95;;;;;;;1.67;97.89;99507.05;1774152;80;21030;-74
2021/04/19 02:15:20;;;;;;;33.75;16.62;;;;;;;1.56;97.67;99507.50;1774007;80;21613;-75
2021/04/19 02:18:14;;;;;;;25.43;13.60;;;;;;;1.44;97.38;99511.45;1774059;80;21211;-75
2021/04/19 02:20:52;;;;;;;30.05;14.53;;;;;;;1.30;97.15;99507.80;1771924;80;26778;-74
2021/04/19 02:23:35;;;;;;;28.87;16.15;;;;;;;1.19;97.07;99511.48;1760868;81;20982;-75
2021/04/19 02:26:10;;;;;;;27.75;15.35;;;;;;;1.13;97.30;99511.17;1760481;81;22092;-74
2021/04/19 02:28:43;;;;;;;31.42;16.00;;;;;;;1.08;97.36;99508.42;1743260;81;21085;-75
2021/04/19 02:31:12;;;;;;;36.58;16.05;;;;;;;1.05;97.46;99507.58;1760459;81;21375;-76
2021/04/19 02:33:42;;;;;;;27.67;14.87;;;;;;;1.01;97.55;99510.51;1760808;81;21136;-76
2021/04/19 02:36:12;;;;;;;28.47;15.13;;;;;;;0.93;97.34;99509.61;1747657;80;21635;-78
2021/04/19 02:38:43;;;;;;;28.92;16.67;;;;;;;0.84;97.19;99508.42;1779268;80;21124;-76
2021/04/19 02:41:13;;;;;;;31.60;17.17;;;;;;;0.77;97.15;99519.95;1760493;80;21137;-77
2021/04/19 02:43:42;;;;;;;37.13;16.27;;;;;;;0.72;97.22;99515.84;1745002;80;21902;-76
2021/04/19 02:46:10;;;;;;;32.73;17.10;;;;;;;0.69;97.54;99515.81;1713738;83;21223;-76
2021/04/19 02:48:38;;;;;;;34.92;16.15;;;;;;;0.67;97.60;99511.19;1752364;80;21118;-76
2021/04/19 02:51:12;;;;;;;32.33;18.02;;;;;;;0.64;97.65;99512.52;1777229;80;21627;-76
2021/04/19 02:53:43;;;;;;;31.25;15.85;;;;;;;0.61;97.66;99513.02;1779693;80;21138;-77
2021/04/19 02:56:11;;;;;;;29.45;15.65;;;;;;;0.59;97.75;99504.87;1779340;80;21194;-76
2021/04/19 02:58:54;;;;;;;29.65;15.18;;;;;;;0.57;97.74;99515.97;1779475;79;20989;-75
2021/04/19 03:01:29;;;;;;;32.15;15.32;;;;;;;0.54;97.71;99515.11;1779356;80;21547;-74
2021/04/19 03:04:01;;;;;;;33.35;17.75;;;;;;;0.49;97.63;99514.23;1779606;80;20922;-76
2021/04/19 03:06:29;;;;;;;49.45;22.98;;;;;;;0.46;97.76;99515.55;1779239;80;21065;-75
2021/04/19 03:09:01;;;;;;;37.03;18.42;;;;;;;0.46;97.99;99511.50;1729864;80;22206;-76
2021/04/19 03:11:52;;;;;;;34.23;17.17;;;;;;;0.48;98.21;99516.65;1779014;80;21021;-75
2021/04/19 03:14:24;;;;;;;35.52;17.70;;;;;;;0.52;98.29;99524.53;1750272;81;21184;-76
2021/04/19 03:17:12;;;;;;;29.90;16.75;;;;;;;0.50;98.25;99516.69;1779236;80;21212;-76
2021/04/19 03:19:59;;;;;;;38.15;18.52;;;;;;;0.52;98.14;99518.59;1889601;75;22691;-76
2021/04/19 03:22:29;;;;;;;29.07;16.05;;;;;;;0.48;98.14;99512.06;1860420;77;21034;-78
2021/04/19 03:24:57;;;;;;;31.10;15.58;;;;;;;0.47;98.09;99513.13;1860319;77;21801;-78
2021/04/19 03:27:26;;;;;;;34.95;17.50;;;;;;;0.46;98.08;99515.55;1859864;77;21022;-75
2021/04/19 03:29:57;;;;;;;35.63;17.07;;;;;;;0.44;98.04;99518.22;1828589;77;20991;-75
2021/04/19 03:32:30;;;;;;;30.17;16.70;;;;;;;0.45;98.28;99517.15;1827383;77;20999;-75
2021/04/19 03:35:03;;;;;;;29.65;17.02;;;;;;;0.46;98.39;99519.60;1860645;77;21497;-78
2021/04/19 03:37:32;;;;;;;34.10;17.70;;;;;;;0.50;98.52;99518.56;1860462;77;22268;-78
2021/04/19 03:40:13;;;;;;;42.40;20.25;;;;;;;0.52;98.47;99517.25;1860539;77;20991;-78
2021/04/19 03:42:42;;;;;;;49.15;22.42;;;;;;;0.52;98.36;99511.03;1860264;77;20994;-78
2021/04/19 03:45:12;;;;;;;46.02;19.95;;;;;;;0.55;98.39;99517.28;1850036;76;21018;-78
2021/04/19 03:47:54;;;;;;;41.08;20.48;;;;;;;0.61;98.39;99515.72;1873204;76;22735;-78
2021/04/19 03:50:24;;;;;;;39.48;18.70;;;;;;;0.58;98.37;99517.56;1839589;78;21015;-78
2021/04/19 03:52:54;;;;;;;39.42;18.95;;;;;;;0.60;98.39;99522.19;1838684;76;21585;-77
2021/04/19 03:55:22;;;;;;;44.15;20.27;;;;;;;0.61;98.38;99518.42;1845592;76;20999;-77
2021/04/19 03:57:49;;;;;;;41.35;21.27;;;;;;;0.65;98.55;99523.60;1811449;78;20985;-77
2021/04/19 04:00:21;;;;;;;41.25;21.40;;;;;;;0.73;98.82;99528.28;1829079;77;21187;-77
2021/04/19 04:02:53;;;;;;;50.85;23.35;;;;;;;0.81;99.03;99525.14;1830251;77;21536;-77
2021/04/19 04:05:23;;;;;;;53.92;24.52;;;;;;;0.90;99.28;99530.38;1828069;78;21204;-74
2021/04/19 04:07:55;;;;;;;47.65;22.40;;;;;;;1.01;99.55;99524.56;1828704;78;21021;-78
2021/04/19 04:10:23;;;;;;;51.40;24.75;;;;;;;1.09;99.60;99526.27;1803742;78;20973;-74
2021/04/19 04:12:51;;;;;;;52.45;24.35;;;;;;;1.19;99.71;99531.77;1797133;78;21171;-79
2021/04/19 04:15:20;;;;;;;52.60;24.92;;;;;;;1.27;99.75;99527.25;1797669;78;21472;-75
2021/04/19 04:17:49;;;;;;;52.10;26.70;;;;;;;1.35;99.79;99538.14;1806685;79;21564;-75
2021/04/19 04:20:19;;;;;;;58.63;27.10;;;;;;;1.41;99.81;99529.01;1757341;80;21185;-74
2021/04/19 04:23:01;;;;;;;53.65;24.75;;;;;;;1.57;99.98;99533.48;1889049;76;23215;-73
2021/04/19 04:25:31;;;;;;;59.95;26.50;;;;;;;1.63;100.00;99539.77;1852139;76;21002;-73
2021/04/19 04:28:01;;;;;;;57.62;26.15;;;;;;;1.73;100.00;99534.98;1841321;77;21363;-74
2021/04/19 04:30:30;;;;;;;47.67;24.32;;;;;;;1.81;100.00;99529.88;1795745;78;21498;-74
2021/04/19 04:33:08;;;;;;;43.65;24.15;;;;;;;2.02;100.00;99529.49;1889877;75;22738;-75
2021/04/19 04:35:38;;;;;;;52.25;23.12;;;;;;;2.02;100.00;99529.49;1860308;77;20919;-75
2021/04/19 04:38:17;;;;;;;48.42;25.12;;;;;;;2.15;100.00;99533.11;1859289;77;21355;-75
2021/04/19 04:40:46;;;;;;;51.55;25.00;;;;;;;2.27;100.00;99530.20;1860060;77;20990;-75
2021/04/19 04:43:19;;;;;;;55.35;28.25;;;;;;;2.40;100.00;99541.09;1860744;77;21549;-75
2021/04/19 04:45:47;;;;;;;69.73;32.37;;;;;;;2.53;100.00;99533.84;1860746;77;20900;-74
2021/04/19 04:48:26;;;;;;;67.85;32.05;;;;;;;2.69;100.00;99527.96;1860602;77;21038;-74
2021/04/19 04:51:04;;;;;;;54.98;29.32;;;;;;;2.82;100.00;99531.55;1860628;77;21368;-75
2021/04/19 04:53:45;;;;;;;58.80;28.38;;;;;;;2.96;100.00;99534.01;1860748;77;21003;-72
2021/04/19 04:56:13;;;;;;;48.68;26.65;;;;;;;3.12;100.00;99532.98;1860475;77;21031;-75
2021/04/19 04:58:40;;;;;;;50.63;26.27;;;;;;;3.24;100.00;99525.95;1791394;78;21151;-77
2021/04/19 05:01:09;;;;;;;49.13;24.30;;;;;;;3.36;100.00;99530.59;1780163;78;21066;-70
2021/04/19 05:03:39;;;;;;;46.45;23.90;;;;;;;3.51;100.00;99529.77;1779187;80;21374;-72
2021/04/19 05:06:09;;;;;;;;;;;;;;;3.65;100.00;99529.52;1748429;81;21057;-73
2021/04/19 05:08:38;;;;;;;46.35;25.35;;;;;;;3.76;100.00;99528.98;1773420;80;20152;-71
2021/04/19 05:11:09;;;;;;;49.63;24.05;;;;;;;3.88;100.00;99529.53;1789701;80;21640;-74
2021/04/19 05:13:37;;;;;;;43.10;23.42;;;;;;;4.00;100.00;99522.46;1790114;80;20910;-79
2021/04/19 05:16:06;;;;;;;67.37;29.40;;;;;;;4.14;100.00;99522.96;1789894;80;21202;-72
2021/04/19 05:18:33;;;;;;;62.93;30.10;;;;;;;4.27;100.00;99514.25;1790527;78;21552;-77
2021/04/19 05:21:03;;;;;;;44.60;23.42;;;;;;;4.41;100.00;99511.77;1804804;78;21575;-77
2021/04/19 05:23:31;;;;;;;39.53;20.85;;;;;;;4.56;100.00;99511.73;1806714;79;21136;-83
2021/04/19 05:26:02;;;;;;;41.25;19.27;;;;;;;4.70;100.00;99509.75;1822407;78;21164;-79
2021/04/19 05:28:31;;;;;;;31.55;18.42;;;;;;;4.85;100.00;99489.29;1804941;79;21331;-78
2021/04/19 05:30:59;;;;;;;28.23;17.50;;;;;;;4.98;100.00;99510.45;1815364;78;21550;-77
2021/04/19 05:33:26;;;;;;;30.17;18.65;;;;;;;5.15;100.00;99512.81;1817455;78;21047;-78
2021/04/19 05:35:54;;;;;;;46.68;22.87;;;;;;;5.28;99.39;99502.63;1817039;78;20981;-78
2021/04/19 05:38:23;;;;;;;41.53;22.05;;;;;;;5.38;98.57;99508.02;1818293;78;21819;-82
2021/04/19 05:40:52;;;;;;;41.45;20.10;;;;;;;5.46;98.05;99507.41;1784510;79;21363;-79
2021/04/19 05:43:20;;;;;;;34.65;18.45;;;;;;;5.63;97.66;99509.75;1806479;79;20968;-77
2021/04/19 05:45:47;;;;;;;44.67;22.30;;;;;;;5.79;96.90;99509.86;1806218;79;20951;-78
2021/04/19 05:48:16;;;;;;;30.40;17.95;;;;;;;6.09;95.43;99514.82;1806078;79;20935;-79
2021/04/19 05:50:43;;;;;;;32.17;15.93;;;;;;;6.09;95.43;99514.82;1806025;78;21162;-86
2021/04/19 05:53:11;;;;;;;29.32;17.02;;;;;;;6.40;93.94;99512.58;1806252;79;22252;-78
2021/04/19 05:55:41;;;;;;;29.20;16.15;;;;;;;6.40;93.94;99512.58;1806212;79;20952;-78
2021/04/19 05:58:31;;;;;;;33.65;15.85;;;;;;;6.56;94.01;99510.77;1806208;78;21154;-74
2021/04/19 06:01:11;;;;;;;18.98;12.90;;;;;;;6.75;93.62;99511.38;1822527;78;21081;-77
2021/04/19 06:04:05;;;;;;;18.20;12.18;;;;;;;6.95;92.17;99505.08;1756654;81;21589;-77
2021/04/19 06:07:08;;;;;;;19.20;12.58;;;;;;;7.14;90.93;99507.84;1727458;81;21370;-76
2021/04/19 06:10:06;;;;;;;20.82;12.00;;;;;;;7.43;89.16;99500.88;1889384;74;22680;-76
2021/04/19 06:12:41;;;;;;;;;;;;;;;7.56;88.13;99500.66;1817118;79;21117;-76
2021/04/19 06:15:13;;;;;;;23.77;11.33;;;;;;;7.72;85.46;99500.67;1815793;78;21182;-80
2021/04/19 06:17:46;;;;;;;19.02;12.55;;;;;;;7.79;84.67;99495.64;1815690;79;21007;-79
2021/04/19 06:20:15;;;;;;;20.27;12.88;;;;;;;7.92;84.32;99493.52;1816278;79;21526;-78
2021/04/19 06:22:43;;;;;;;19.90;12.25;;;;;;;8.05;83.49;99504.78;1816203;78;22189;-78
2021/04/19 06:25:12;;;;;;;18.62;11.97;;;;;;;8.15;82.84;99500.48;1816371;79;20947;-78
2021/04/19 06:27:40;;;;;;;19.75;12.30;;;;;;;8.25;82.05;99490.17;1815415;78;21196;-77
2021/04/19 06:30:19;;;;;;;16.37;11.00;;;;;;;8.37;81.81;99491.08;1787270;79;21053;-78
2021/04/19 06:32:49;;;;;;;21.37;10.93;;;;;;;8.49;81.53;99487.30;1787602;80;21042;-78
2021/04/19 06:35:18;;;;;;;16.60;10.70;;;;;;;8.66;80.93;99489.98;1787519;80;21434;-77
2021/04/19 06:37:54;;;;;;;18.82;11.97;;;;;;;8.76;80.10;99491.93;1787911;79;20911;-78
2021/04/19 06:40:22;;;;;;;18.37;11.20;;;;;;;8.84;78.75;99489.84;1787760;80;22145;-75
2021/04/19 06:42:53;;;;;;;16.57;10.10;;;;;;;8.95;77.88;99484.97;1787376;79;21068;-76
2021/04/19 06:45:21;;;;;;;16.62;9.98;;;;;;;9.04;77.06;99483.69;1787834;80;21568;-75
2021/04/19 06:47:48;;;;;;;13.18;9.28;;;;;;;9.13;76.97;99485.41;1787752;79;21068;-76
2021/04/19 06:50:17;;;;;;;16.12;10.03;;;;;;;9.24;76.52;99482.66;1791346;79;20926;-78
2021/04/19 06:52:47;;;;;;;11.95;7.30;;;;;;;9.38;76.31;99483.18;1816287;78;21047;-75
2021/04/19 06:55:17;;;;;;;10.90;7.75;;;;;;;9.53;75.98;99480.09;1816131;79;20931;-74
2021/04/19 06:57:57;;;;;;;13.40;8.13;;;;;;;9.68;75.36;99483.03;1816190;79;21015;-72
2021/04/19 07:00:27;;;;;;;23.60;7.83;;;;;;;9.84;74.06;99478.77;1816266;79;21133;-75
2021/04/19 07:02:58;;;;;;;11.25;7.33;;;;;;;9.93;72.95;99478.26;1816130;79;21004;-76
2021/04/19 07:05:30;;;;;;;15.38;7.08;;;;;;;10.01;72.95;99478.06;1816407;79;22219;-77
2021/04/19 07:08:30;;;;;;;13.38;7.00;;;;;;;10.08;71.16;99477.88;1816255;78;21106;-75
2021/04/19 07:11:05;;;;;;;14.03;6.25;;;;;;;10.20;71.94;99470.47;1819295;78;21554;-81
2021/04/19 07:13:36;;;;;;;8.33;6.05;;;;;;;10.46;71.62;99481.54;1819528;78;20935;-76
2021/04/19 07:16:07;;;;;;;11.48;6.15;;;;;;;10.69;69.71;99478.16;1792202;78;21027;-74
2021/04/19 07:18:36;;;;;;;8.88;5.85;;;;;;;10.78;68.11;99477.63;1819326;78;21417;-78
2021/04/19 07:21:06;;;;;;;11.30;6.40;;;;;;;10.87;68.00;99468.28;1818865;78;20951;-84
2021/04/19 07:23:37;;;;;;;12.93;6.10;;;;;;;11.02;67.89;99468.37;1818691;78;21581;-81
2021/04/19 07:26:06;;;;;;;6.92;4.05;;;;;;;11.16;67.31;99464.92;1818984;78;20912;-84
2021/04/19 07:28:37;;;;;;;6.37;5.05;;;;;;;11.21;64.24;99461.21;1818746;78;21050;-82
2021/04/19 07:31:09;;;;;;;9.50;4.90;;;;;;;11.21;65.81;99458.47;1818797;78;22328;-81
2021/04/19 07:33:36;;;;;;;10.10;5.37;;;;;;;11.31;66.38;99463.64;1818959;78;21510;-82
2021/04/19 07:39:16;;;;;;;9.65;5.25;;;;;;;11.75;66.03;99456.17;1909850;74;22498;-82
2021/04/19 07:41:53;;;;;;;7.75;4.78;;;;;;;11.87;64.96;99457.73;1849766;77;21562;-83
2021/04/19 07:44:41;;;;;;;8.20;4.62;;;;;;;12.18;66.31;99451.39;1849613;77;21465;-82
2021/04/19 07:47:37;;;;;;;5.28;4.22;;;;;;;12.70;64.94;99451.77;1849491;77;20936;-85
2021/04/19 07:50:19;;;;;;;6.55;4.80;;;;;;;13.21;61.93;99442.38;1849591;77;20967;-76
2021/04/19 07:53:05;;;;;;;6.75;4.62;;;;;;;13.70;60.14;99442.02;1785909;79;21006;-82
2021/04/19 07:55:39;;;;;;;6.83;4.35;;;;;;;14.10;58.76;99445.00;1816419;79;20998;-81
2021/04/19 07:58:18;;;;;;;7.05;4.50;;;;;;;14.41;57.38;99435.40;1816446;79;21323;-82
2021/04/19 08:00:46;;;;;;;5.40;4.08;;;;;;;14.58;56.44;99434.38;1816074;79;21035;-84
2021/04/19 08:03:17;;;;;;;6.47;4.28;;;;;;;14.68;56.12;99438.88;1829986;77;21124;-85
2021/04/19 08:05:55;;;;;;;11.57;4.85;;;;;;;14.64;55.03;99431.62;1830040;76;21029;-83
2021/04/19 08:08:36;;;;;;;8.98;4.60;;;;;;;14.49;54.36;99429.77;1819536;76;22123;-85
2021/04/19 08:11:16;;;;;;;7.75;4.45;;;;;;;14.54;53.95;99420.45;1797843;79;21145;-86
2021/04/19 08:13:44;;;;;;;5.80;4.70;;;;;;;14.84;55.02;99426.55;1783992;80;20999;-86
2021/04/19 08:16:20;;;;;;;7.78;4.50;;;;;;;14.93;53.83;99418.94;1784151;80;21522;-85
2021/04/19 08:18:49;;;;;;;6.97;4.62;;;;;;;14.72;53.31;99421.03;1783652;80;21492;-84
2021/04/19 08:21:30;;;;;;;7.72;4.30;;;;;;;14.32;53.52;99418.12;1784286;80;21485;-86
2021/04/19 08:24:16;;;;;;;5.67;4.12;;;;;;;13.95;54.60;99429.09;1784202;80;21362;-85
2021/04/19 08:26:57;;;;;;;6.35;4.33;;;;;;;13.73;54.40;99419.28;1782944;80;21043;-84
2021/04/19 08:29:40;;;;;;;5.58;4.12;;;;;;;13.64;55.36;99424.07;1784338;80;21477;-84
2021/04/19 08:32:08;;;;;;;5.05;3.65;;;;;;;13.46;55.76;99425.36;1783522;80;21054;-83
2021/04/19 08:34:36;;;;;;;6.55;3.50;;;;;;;13.25;55.33;99419.08;1783974;80;21035;-82
2021/04/19 08:37:07;;;;;;;7.87;4.90;;;;;;;13.05;56.12;99418.70;1796265;78;21143;-84
2021/04/19 08:39:35;;;;;;;10.15;4.70;;;;;;;12.90;56.52;99428.94;1819296;78;21534;-82
2021/04/19 08:42:05;;;;;;;5.75;4.03;;;;;;;12.78;56.73;99421.95;1818434;78;20960;-79
2021/04/19 08:44:34;;;;;;;7.45;4.72;;;;;;;12.74;56.87;99415.50;1801235;78;20952;-79
2021/04/19 08:47:03;;;;;;;6.80;4.60;;;;;;;12.72;57.28;99417.20;1817522;78;21031;-76
2021/04/19 08:49:30;;;;;;;6.42;4.67;;;;;;;12.71;56.93;99416.97;1813147;78;21181;-76
2021/04/19 08:51:58;;;;;;;5.40;4.28;;;;;;;12.68;57.50;99416.86;1789192;78;21648;-83
2021/04/19 08:54:28;;;;;;;5.58;3.95;;;;;;;12.64;57.79;99418.09;1783320;80;21093;-74
2021/04/19 08:56:55;;;;;;;5.05;3.72;;;;;;;12.65;57.99;99415.58;1804651;78;21566;-77
2021/04/19 08:59:24;;;;;;;5.83;4.00;;;;;;;12.89;57.51;99411.59;1815305;78;21116;-75
2021/04/19 09:01:52;;;;;;;7.83;4.35;;;;;;;13.18;57.82;99408.02;1792696;78;22636;-75
2021/04/19 09:04:23;;;;;;;9.23;4.20;;;;;;;13.45;56.12;99409.39;1743433;82;20973;-76
2021/04/19 09:06:55;;;;;;;5.03;4.08;;;;;;;13.92;54.67;99402.17;1719818;82;21614;-77
2021/04/19 09:09:43;;;;;;;7.22;4.10;;;;;;;14.28;54.46;99400.06;1733806;82;21178;-77
2021/04/19 09:12:16;;;;;;;4.58;3.87;;;;;;;14.36;53.96;99397.77;1728157;81;21222;-76
2021/04/19 09:14:44;;;;;;;4.67;3.50;;;;;;;14.32;52.34;99399.61;1763164;80;21445;-79
2021/04/19 09:17:29;;;;;;;5.80;3.90;;;;;;;14.49;53.60;99392.48;1780853;79;21667;-80
2021/04/19 09:19:58;;;;;;;4.00;3.30;;;;;;;14.74;52.80;99397.42;1761252;81;20944;-77
2021/04/19 09:22:29;;;;;;;4.17;3.67;;;;;;;14.86;50.10;99396.03;1751504;81;21089;-80
2021/04/19 09:25:05;;;;;;;9.28;5.45;;;;;;;14.71;50.01;99395.35;1731048;82;21017;-78
2021/04/19 09:27:53;;;;;;;9.28;3.92;;;;;;;14.70;52.06;99391.55;1747535;81;21377;-82
2021/04/19 09:30:28;;;;;;;12.25;5.25;;;;;;;15.00;48.92;99388.75;1731542;82;20993;-84
2021/04/19 09:33:11;;;;;;;5.12;3.92;;;;;;;15.40;51.62;99390.11;1719971;83;21058;-76
2021/04/19 09:35:45;;;;;;;9.03;4.17;;;;;;;15.79;50.23;99396.75;1745153;82;21001;-71
2021/04/19 09:38:41;;;;;;;6.62;4.37;;;;;;;15.83;49.29;99394.88;1749838;82;21008;-72
2021/04/19 09:41:11;;;;;;;5.15;3.62;;;;;;;15.66;49.09;99402.11;1749803;81;22267;-77
2021/04/19 09:43:57;;;;;;;6.65;3.67;;;;;;;15.38;48.83;99402.69;1749846;82;21519;-83
2021/04/19 09:46:29;;;;;;;4.85;3.95;;;;;;;15.27;48.67;99399.60;1749917;81;21047;-78
2021/04/19 09:48:59;;;;;;;4.55;3.40;;;;;;;15.34;48.46;99401.77;1749727;82;21765;-81
2021/04/19 09:51:43;;;;;;;4.22;3.52;;;;;;;15.18;47.67;99390.06;1759697;81;20951;-75
2021/04/19 09:54:13;;;;;;;5.08;3.62;;;;;;;14.90;47.38;99395.34;1736580;82;21214;-77
2021/04/19 09:56:49;;;;;;;6.15;3.50;;;;;;;14.69;48.03;99395.47;1731083;81;21217;-77
2021/04/19 09:59:19;;;;;;;6.10;3.95;;;;;;;14.56;46.95;99398.01;1719699;82;21490;-79
2021/04/19 10:01:49;;;;;;;4.92;3.47;;;;;;;14.67;47.74;99398.58;1704487;84;21021;-80
2021/04/19 10:04:18;;;;;;;5.33;2.95;;;;;;;14.95;48.44;99389.57;1735969;81;22119;-80
2021/04/19 10:06:49;;;;;;;5.37;3.50;;;;;;;15.16;47.47;99395.14;1720682;82;21382;-85
2021/04/19 10:09:22;;;;;;;4.35;3.40;;;;;;;15.20;46.06;99398.81;1702719;83;21153;-86
2021/04/19 10:12:05;;;;;;;4.70;3.40;;;;;;;15.27;47.44;99402.95;1702417;83;20989;-76
2021/04/19 10:14:39;;;;;;;5.33;3.58;;;;;;;15.44;47.02;99404.05;1733676;82;21553;-76
2021/04/19 10:17:16;;;;;;;7.08;3.87;;;;;;;15.48;45.89;99404.95;1733716;82;20986;-74
2021/04/19 10:19:47;;;;;;;6.05;3.30;;;;;;;15.38;46.88;99404.06;1733589;82;21025;-75
2021/04/19 10:22:16;;;;;;;5.58;3.70;;;;;;;15.09;46.31;99407.36;1731965;81;20960;-75
2021/04/19 10:24:58;;;;;;;7.85;4.28;;;;;;;14.86;47.23;99409.85;1685267;82;21133;-75
2021/04/19 10:27:30;;;;;;;6.00;3.72;;;;;;;14.61;48.41;99408.83;1719114;82;21905;-76
2021/04/19 10:30:19;;;;;;;7.35;3.98;;;;;;;14.37;48.28;99410.42;1721923;82;21538;-83
2021/04/19 10:32:48;;;;;;;9.30;3.90;;;;;;;14.20;47.74;99407.88;1777862;80;22791;-73
2021/04/19 10:35:31;;;;;;;9.33;5.08;;;;;;;13.93;47.78;99403.79;1761659;80;21012;-78
2021/04/19 10:38:00;;;;;;;43.80;24.00;;;;;;;13.68;48.46;99405.70;1710764;82;21894;-79
2021/04/19 10:40:28;;;;;;;13.53;7.65;;;;;;;13.44;50.40;99407.78;1803611;79;20931;-78
2021/04/19 10:43:13;;;;;;;12.33;7.22;;;;;;;13.23;50.79;99403.45;1807619;79;21004;-75
2021/04/19 10:45:41;;;;;;;15.03;9.03;;;;;;;13.01;50.73;99412.81;1804589;79;21347;-74
2021/04/19 10:48:21;;;;;;;25.25;16.42;;;;;;;12.76;51.26;99416.78;1803750;79;21006;-77
2021/04/19 10:50:52;;;;;;;19.05;10.28;;;;;;;12.64;52.53;99413.16;1724031;82;20994;-80
2021/04/19 10:53:34;;;;;;;14.35;8.38;;;;;;;12.56;52.81;99412.87;1720288;82;21929;-80
2021/04/19 10:56:03;;;;;;;10.13;5.92;;;;;;;12.46;53.00;99415.19;1729950;82;21116;-75
2021/04/19 10:58:32;;;;;;;9.88;6.80;;;;;;;12.33;53.04;99414.84;1801600;78;21290;-75
2021/04/19 11:01:00;;;;;;;11.08;6.33;;;;;;;12.28;53.94;99418.58;1767022;79;21939;-76
2021/04/19 11:03:35;;;;;;;9.68;7.45;;;;;;;12.27;54.45;99413.41;1808069;78;21609;-75
2021/04/19 11:05:59;;;;;;;11.90;6.87;;;;;;;12.22;54.34;99414.39;1774081;79;21117;-75
2021/04/19 11:09:04;;;;;;;10.60;5.75;;;;;;;12.15;54.31;99419.59;1773495;79;21100;-75
2021/04/19 11:11:42;;;;;;;7.87;5.72;;;;;;;12.11;55.36;99412.59;1728328;82;22046;-72
2021/04/19 11:14:20;;;;;;;9.10;6.10;;;;;;;12.09;55.19;99415.44;1803804;79;21560;-74
2021/04/19 11:17:04;;;;;;;12.13;8.33;;;;;;;12.09;55.28;99410.74;1805224;79;20956;-82
2021/04/19 11:19:44;;;;;;;16.67;9.35;;;;;;;12.13;54.96;99408.14;1796805;79;21553;-78
2021/04/19 11:22:34;;;;;;;15.30;7.65;;;;;;;12.17;53.86;99407.69;1806344;79;21573;-77
2021/04/19 11:25:21;;;;;;;9.85;6.00;;;;;;;12.20;54.11;99409.78;1799177;78;21317;-77
2021/04/19 11:27:51;;;;;;;8.60;5.78;;;;;;;12.25;53.92;99399.97;1801998;79;21013;-75
2021/04/19 11:30:27;;;;;;;10.48;6.50;;;;;;;12.29;53.33;99405.63;1799671;79;20958;-76
2021/04/19 11:33:15;;;;;;;15.08;7.22;;;;;;;12.33;52.43;99399.13;1807349;79;21076;-75
2021/04/19 11:35:47;;;;;;;11.57;7.70;;;;;;;12.36;52.97;99399.84;1803227;79;20993;-76
2021/04/19 11:38:21;;;;;;;11.18;7.22;;;;;;;12.39;52.29;99396.43;1805831;79;22266;-76
2021/04/19 11:40:50;;;;;;;9.30;5.78;;;;;;;12.40;52.88;99384.85;1730301;82;21141;-76
2021/04/19 11:43:23;;;;;;;8.68;5.95;;;;;;;12.46;52.43;99393.16;1742015;81;21148;-75
2021/04/19 11:46:04;;;;;;;11.38;6.72;;;;;;;12.50;52.35;99397.67;1732855;82;21635;-77
2021/04/19 11:48:34;;;;;;;10.50;6.70;;;;;;;12.54;52.09;99395.06;1713758;83;21949;-75
2021/04/19 11:51:02;;;;;;;12.40;6.03;;;;;;;12.56;52.92;99385.33;1741681;81;21143;-75
2021/04/19 11:53:32;;;;;;;6.83;5.00;;;;;;;12.60;52.30;99388.23;1731028;80;21079;-74
2021/04/19 11:56:04;;;;;;;8.63;5.53;;;;;;;12.60;50.71;99387.42;1739508;81;21132;-79
2021/04/19 11:58:37;;;;;;;10.13;6.97;;;;;;;12.57;51.86;99377.88;1729854;80;21133;-77